Time;durP1;ratioP1;P1;durP2;ratioP2;P2;SDS_P1;SDS_P2;PMS_P1;PMS_P2;Temp;Humidity;BMP_temperature;BMP_pressure;BME280_temperature;BME280_humidity;BME280_pressure;Samples;Min_cycle;Max_cycle;Signal;HPM_P1;HPM_P2
2022/12/03 00:00:16;;;;;;;76.25;62.95;;;;;;;2.16;100.00;102284.41;4993689;28;20138;-82
2022/12/03 00:02:45;;;;;;;76.05;64.90;;;;;;;2.16;100.00;102284.41;4993805;28;20046;-81
2022/12/03 00:05:14;;;;;;;76.03;65.20;;;;;;;2.15;100.00;102287.97;4991534;28;20181;-83
2022/12/03 00:07:41;;;;;;;78.82;65.00;;;;;;;2.01;100.00;102288.13;4981257;28;20396;-82
2022/12/03 00:10:09;;;;;;;81.13;63.05;;;;;;;2.10;100.00;102281.38;4994390;28;20050;-81
2022/12/03 00:12:38;;;;;;;84.60;61.50;;;;;;;2.09;100.00;102283.19;4992339;28;20046;-80
2022/12/03 00:15:05;;;;;;;77.15;67.75;;;;;;;1.97;100.00;102282.28;4994105;28;20050;-82
2022/12/03 00:17:32;;;;;;;76.40;61.22;;;;;;;2.04;100.00;102286.13;4987630;28;20046;-79
2022/12/03 00:20:00;;;;;;;76.53;59.97;;;;;;;2.11;100.00;102296.16;4993068;28;20483;-80
2022/12/03 00:22:30;;;;;;;72.20;60.20;;;;;;;1.99;100.00;102290.84;4986722;28;20053;-81
2022/12/03 00:25:15;;;;;;;80.15;71.60;;;;;;;2.05;100.00;102290.41;4982097;28;20062;-81
2022/12/03 00:27:52;;;;;;;74.60;66.03;;;;;;;2.04;100.00;102286.13;4994040;28;20050;-84
2022/12/03 00:30:21;;;;;;;69.78;58.42;;;;;;;2.00;100.00;102289.94;4993318;28;20058;-82
2022/12/03 00:32:48;;;;;;;80.18;62.28;;;;;;;1.99;100.00;102290.84;4993627;28;20046;-81
2022/12/03 00:35:20;;;;;;;73.13;60.28;;;;;;;2.09;100.00;102287.56;4994265;28;20062;-79
2022/12/03 00:37:49;;;;;;;81.22;65.22;;;;;;;2.11;100.00;102298.78;4988382;28;20054;-83
2022/12/03 00:40:16;;;;;;;79.00;67.97;;;;;;;2.05;100.00;102289.56;4992023;28;20054;-80
2022/12/03 00:42:43;;;;;;;72.10;61.95;;;;;;;2.04;100.00;102296.59;4993164;28;20081;-80
2022/12/03 00:45:12;;;;;;;71.32;61.83;;;;;;;2.08;100.00;102294.59;4992106;28;20469;-82
2022/12/03 00:47:40;;;;;;;74.70;58.75;;;;;;;2.05;100.00;102295.66;4982607;28;20081;-81
2022/12/03 00:50:08;;;;;;;72.60;64.32;;;;;;;2.03;100.00;102289.69;4981382;28;20050;-79
2022/12/03 00:52:37;;;;;;;69.75;59.60;;;;;;;2.14;100.00;102296.75;4992287;28;20046;-80
2022/12/03 00:55:08;;;;;;;80.78;60.38;;;;;;;2.18;100.00;102295.63;4989466;28;20513;-79
2022/12/03 00:57:35;;;;;;;75.00;63.28;;;;;;;2.06;100.00;102296.50;4993655;28;20112;-80
2022/12/03 01:00:02;;;;;;;72.20;59.03;;;;;;;2.00;100.00;102304.81;4992462;28;20207;-83
2022/12/03 01:02:31;;;;;;;79.45;62.08;;;;;;;2.16;100.00;102307.97;5044259;23;20049;-94
2022/12/03 01:05:05;;;;;;;77.70;69.18;;;;;;;2.17;100.00;102301.78;5028092;28;20057;-93
2022/12/03 01:07:33;;;;;;;72.72;62.33;;;;;;;2.15;100.00;102305.47;5027431;28;20097;-94
2022/12/03 01:10:02;;;;;;;69.88;57.80;;;;;;;2.12;100.00;102308.31;5034683;28;20084;-93
2022/12/03 01:15:16;;;;;;;74.47;66.50;;;;;;;2.11;100.00;102312.72;5036214;28;20485;-95
2022/12/03 01:17:44;;;;;;;74.18;66.25;;;;;;;2.10;100.00;102308.44;5037183;28;20093;-93
2022/12/03 01:20:11;;;;;;;69.68;61.88;;;;;;;2.14;100.00;102316.91;5036849;28;20038;-94
2022/12/03 01:22:40;;;;;;;73.97;63.92;;;;;;;2.11;100.00;102304.84;5036159;28;20026;-94
2022/12/03 01:25:07;;;;;;;76.55;59.05;;;;;;;2.05;100.00;102314.00;5036742;28;20037;-95
2022/12/03 01:27:36;;;;;;;68.10;60.83;;;;;;;2.01;100.00;102314.34;5040701;28;20040;-94
2022/12/03 01:30:06;;;;;;;72.03;58.10;;;;;;;2.03;100.00;102320.31;5038697;28;20093;-95
2022/12/03 01:35:15;;;;;;;76.93;57.60;;;;;;;2.03;100.00;102330.81;5095107;27;20407;-82
2022/12/03 01:37:42;;;;;;;74.40;60.35;;;;;;;1.97;100.00;102320.75;5091260;28;20052;-82
2022/12/03 01:40:15;;;;;;;80.03;64.93;;;;;;;2.12;100.00;102327.53;5083417;28;20121;-80
2022/12/03 01:42:44;;;;;;;75.35;58.13;;;;;;;2.13;100.00;102325.72;5081003;28;20132;-84
2022/12/03 01:45:21;;;;;;;78.88;62.03;;;;;;;2.13;100.00;102330.97;5086837;28;20543;-84
2022/12/03 01:47:49;;;;;;;75.90;58.70;;;;;;;2.14;100.00;102333.47;5086665;28;20048;-84
2022/12/03 01:50:30;;;;;;;84.55;66.00;;;;;;;2.15;100.00;102335.16;5090923;28;20373;-82
2022/12/03 01:53:00;;;;;;;74.03;59.47;;;;;;;2.16;100.00;102338.63;5084995;28;20040;-82
2022/12/03 01:55:27;;;;;;;80.75;59.97;;;;;;;2.07;100.00;102321.75;5089852;28;20052;-83
2022/12/03 01:57:57;;;;;;;77.80;61.95;;;;;;;2.10;100.00;102321.53;5089343;28;20537;-83
2022/12/03 02:00:26;;;;;;;77.20;66.40;;;;;;;2.12;100.00;102316.16;5089138;28;20055;-82
2022/12/03 02:02:56;;;;;;;78.55;69.88;;;;;;;2.13;100.00;102326.56;5090211;28;20056;-83
2022/12/03 02:05:31;;;;;;;73.80;61.67;;;;;;;2.16;100.00;102326.34;5090177;28;20044;-84
2022/12/03 02:07:58;;;;;;;70.72;58.08;;;;;;;2.12;100.00;102324.03;5080874;28;20048;-81
2022/12/03 02:10:27;;;;;;;71.00;58.28;;;;;;;2.12;100.00;102326.66;5088005;28;20044;-84
2022/12/03 02:12:59;;;;;;;76.22;62.78;;;;;;;2.16;100.00;102322.88;5090087;28;20125;-82
2022/12/03 02:15:28;;;;;;;77.97;59.28;;;;;;;2.08;100.00;102333.91;5077452;28;20048;-83
2022/12/03 02:17:57;;;;;;;69.80;59.08;;;;;;;2.15;100.00;102327.28;5085614;28;20472;-82
2022/12/03 02:20:24;;;;;;;75.03;58.88;;;;;;;2.14;100.00;102327.41;5088914;28;20044;-81
2022/12/03 02:22:58;;;;;;;80.65;63.00;;;;;;;2.10;100.00;102337.28;5086361;28;20040;-82
2022/12/03 02:25:30;;;;;;;80.15;64.10;;;;;;;2.12;100.00;102331.91;5087587;28;20048;-82
2022/12/03 02:28:00;;;;;;;77.05;63.00;;;;;;;2.10;100.00;102331.19;5072917;28;20040;-82
2022/12/03 02:30:31;;;;;;;85.55;62.70;;;;;;;2.11;100.00;102335.47;5081968;28;20078;-83
2022/12/03 02:32:58;;;;;;;130.50;86.85;;;;;;;1.87;100.00;102336.28;5082446;28;20526;-81
2022/12/03 02:35:27;;;;;;;113.60;87.13;;;;;;;1.98;100.00;102343.41;5089528;28;20048;-82
2022/12/03 02:37:59;;;;;;;119.47;84.97;;;;;;;1.95;100.00;102338.38;5083002;28;20044;-82
2022/12/03 02:40:31;;;;;;;111.38;82.10;;;;;;;1.91;100.00;102332.53;5081726;28;20506;-81
2022/12/03 02:43:02;;;;;;;86.63;62.33;;;;;;;2.02;100.00;102339.59;5089354;28;20055;-80
2022/12/03 02:45:39;;;;;;;88.97;69.25;;;;;;;2.04;100.00;102335.94;5075362;28;20517;-82
2022/12/03 02:48:11;;;;;;;89.32;67.22;;;;;;;2.16;100.00;102344.69;5075708;28;20472;-83
2022/12/03 02:50:41;;;;;;;84.28;66.68;;;;;;;1.96;100.00;102342.66;5075477;28;20037;-81
2022/12/03 02:53:15;;;;;;;92.63;67.63;;;;;;;1.83;100.00;102337.47;5066077;28;20463;-83
2022/12/03 02:55:43;;;;;;;87.15;63.17;;;;;;;1.98;100.00;102339.00;5071130;28;20055;-82
2022/12/03 02:58:11;;;;;;;82.57;66.15;;;;;;;1.93;100.00;102327.97;5075451;28;20048;-84
2022/12/03 03:00:39;;;;;;;73.40;58.92;;;;;;;2.02;100.00;102340.44;5058850;28;20052;-83
2022/12/03 03:03:07;;;;;;;69.30;57.20;;;;;;;2.04;100.00;102342.97;5060537;28;20053;-80
2022/12/03 03:05:37;;;;;;;74.97;58.00;;;;;;;2.01;100.00;102336.16;5070398;28;20041;-84
2022/12/03 03:08:07;;;;;;;77.00;63.72;;;;;;;2.05;100.00;102337.59;5072303;28;20063;-83
2022/12/03 03:10:52;;;;;;;81.10;68.72;;;;;;;2.11;100.00;102343.34;5074035;28;20044;-81
2022/12/03 03:13:22;;;;;;;80.03;59.42;;;;;;;2.05;100.00;102344.63;5072949;28;20186;-83
2022/12/03 03:15:49;;;;;;;77.40;58.58;;;;;;;2.02;100.00;102340.44;5075153;28;20048;-83
2022/12/03 03:18:17;;;;;;;84.07;61.05;;;;;;;1.93;100.00;102337.63;5073076;28;20044;-83
2022/12/03 03:20:51;;;;;;;80.43;68.85;;;;;;;1.94;100.00;102340.16;5061793;28;20056;-83
2022/12/03 03:23:22;;;;;;;85.32;76.07;;;;;;;1.98;100.00;102341.59;5060171;28;20171;-83
2022/12/03 03:25:56;;;;;;;81.82;65.07;;;;;;;1.94;100.00;102340.16;5073250;28;20052;-83
2022/12/03 03:28:23;;;;;;;95.63;73.82;;;;;;;1.99;100.00;102345.06;5060159;28;20045;-83
2022/12/03 03:30:53;;;;;;;89.32;70.53;;;;;;;2.03;100.00;102342.13;5074803;28;20044;-85
2022/12/03 03:33:20;;;;;;;83.55;70.57;;;;;;;2.02;100.00;102352.69;5074731;28;20045;-85
2022/12/03 03:35:53;;;;;;;81.00;63.38;;;;;;;1.94;100.00;102347.19;5070506;28;20431;-83
2022/12/03 03:38:22;;;;;;;75.68;59.42;;;;;;;1.81;100.00;102349.81;5067877;28;20052;-81
2022/12/03 03:40:51;;;;;;;80.25;59.40;;;;;;;2.02;100.00;102352.69;5074761;28;20044;-82
2022/12/03 03:43:22;;;;;;;79.40;62.88;;;;;;;1.99;100.00;102352.91;5075380;28;20454;-84
2022/12/03 03:45:55;;;;;;;77.72;62.55;;;;;;;2.02;100.00;102350.09;5075147;28;20044;-84
2022/12/03 03:48:24;;;;;;;75.63;57.25;;;;;;;2.03;100.00;102349.97;5067607;28;20063;-82
2022/12/03 03:50:52;;;;;;;75.47;58.83;;;;;;;1.99;100.00;102347.69;5055549;28;20461;-82
2022/12/03 03:53:21;;;;;;;80.75;58.03;;;;;;;2.03;100.00;102359.63;5071947;28;20052;-82
2022/12/03 03:55:48;;;;;;;79.72;66.75;;;;;;;1.96;100.00;102355.75;5071167;28;20061;-83
2022/12/03 03:58:22;;;;;;;82.80;65.85;;;;;;;1.81;100.00;102355.91;5067742;28;20554;-84
2022/12/03 04:00:49;;;;;;;80.75;62.28;;;;;;;1.75;100.00;102358.13;5057235;28;20048;-81
2022/12/03 04:03:16;;;;;;;82.28;62.40;;;;;;;1.66;100.00;102354.34;5072278;28;20106;-81
2022/12/03 04:05:45;;;;;;;80.60;60.95;;;;;;;1.73;100.00;102355.63;5074631;28;20060;-82
2022/12/03 04:08:13;;;;;;;85.50;71.40;;;;;;;1.80;100.00;102363.88;5061818;28;20477;-82
2022/12/03 04:13:24;;;;;;;80.20;62.72;;;;;;;1.92;100.00;102359.56;5032366;28;20037;-81
2022/12/03 04:15:51;;;;;;;80.40;63.03;;;;;;;1.90;100.00;102354.41;5059732;28;20045;-81
2022/12/03 04:23:51;;;;;;;87.35;64.68;;;;;;;1.88;100.00;102364.19;5059055;28;20122;-84
2022/12/03 04:29:11;;;;;;;89.30;70.53;;;;;;;1.93;100.00;102367.28;5073787;28;20125;-84
2022/12/03 04:37:17;;;;;;;76.78;61.20;;;;;;;1.94;100.00;102363.75;5067779;28;20048;-84
2022/12/03 04:39:53;;;;;;;89.22;64.18;;;;;;;1.92;100.00;102365.63;5073962;28;20040;-84
2022/12/03 04:42:25;;;;;;;84.55;65.97;;;;;;;1.96;100.00;102376.72;5073434;28;20125;-84
2022/12/03 04:44:53;;;;;;;81.25;66.05;;;;;;;1.97;100.00;102362.69;5063432;28;20045;-84
2022/12/03 04:47:22;;;;;;;83.80;62.53;;;;;;;1.97;100.00;102375.81;5062585;28;20040;-81
2022/12/03 04:49:54;;;;;;;89.82;64.38;;;;;;;1.95;100.00;102370.66;5066970;28;20078;-82
2022/12/03 04:52:21;;;;;;;92.43;68.78;;;;;;;2.00;100.00;102372.97;5071668;28;20044;-83
2022/12/03 04:54:48;;;;;;;82.43;68.93;;;;;;;1.97;100.00;102374.00;5067897;28;20098;-82
2022/12/03 04:57:15;;;;;;;77.50;61.72;;;;;;;1.97;100.00;102375.81;5073709;28;20053;-82
2022/12/03 04:59:45;;;;;;;77.03;61.38;;;;;;;2.03;100.00;102385.84;5071979;28;20052;-83
2022/12/03 05:02:13;;;;;;;75.00;59.35;;;;;;;2.13;100.00;102379.00;5071824;28;20101;-83
2022/12/03 05:04:40;;;;;;;87.25;68.95;;;;;;;1.99;100.00;102385.19;5062836;28;20106;-84
2022/12/03 05:07:07;;;;;;;78.70;61.17;;;;;;;1.99;100.00;102393.06;5069011;28;20059;-83
2022/12/03 05:09:36;;;;;;;78.13;62.83;;;;;;;1.84;100.00;102387.13;5075057;28;20048;-84
2022/12/03 05:12:03;;;;;;;84.97;64.25;;;;;;;1.81;100.00;102381.25;5073380;28;20056;-81
2022/12/03 05:14:31;;;;;;;80.72;61.13;;;;;;;1.93;100.00;102383.03;5068274;28;20072;-82
2022/12/03 05:16:58;;;;;;;93.18;64.20;;;;;;;1.95;100.00;102383.75;5060774;28;20051;-82
2022/12/03 05:22:09;;;;;;;89.72;64.00;;;;;;;1.97;100.00;102389.75;5064879;28;20056;-82
2022/12/03 05:24:36;;;;;;;92.80;63.58;;;;;;;2.04;100.00;102388.34;5066069;28;20048;-84
2022/12/03 05:27:02;;;;;;;84.88;65.25;;;;;;;2.16;100.00;102394.50;5071258;28;20378;-85
2022/12/03 05:29:32;;;;;;;85.60;63.95;;;;;;;2.11;100.00;102393.97;5073344;28;20044;-83
2022/12/03 05:31:59;;;;;;;99.95;66.65;;;;;;;2.09;100.00;102393.28;5059092;28;20053;-80
2022/12/03 05:34:28;;;;;;;120.65;74.35;;;;;;;2.12;100.00;102397.44;5072079;28;20044;-83
2022/12/03 05:36:56;;;;;;;122.93;75.45;;;;;;;2.08;100.00;102404.69;5066503;28;20481;-80
2022/12/03 05:39:24;;;;;;;107.50;71.82;;;;;;;1.97;100.00;102399.38;5073108;28;20060;-82
2022/12/03 05:44:35;;;;;;;115.85;73.35;;;;;;;1.95;100.00;102407.34;5062975;28;20047;-81
2022/12/03 05:47:07;;;;;;;109.30;70.85;;;;;;;2.06;100.00;102401.34;5064743;28;20048;-83
2022/12/03 05:49:53;;;;;;;102.65;72.15;;;;;;;2.12;100.00;102411.41;5066901;28;20044;-82
2022/12/03 05:52:20;;;;;;;103.78;71.03;;;;;;;2.11;100.00;102408.88;5069829;28;20472;-84
2022/12/03 05:54:47;;;;;;;90.75;64.88;;;;;;;2.08;100.00;102416.97;5067347;28;20055;-81
2022/12/03 05:57:14;;;;;;;91.57;60.50;;;;;;;2.08;100.00;102414.34;5066020;28;20044;-84
2022/12/03 05:59:40;;;;;;;94.30;61.70;;;;;;;2.03;100.00;102415.50;5067460;28;20044;-82
2022/12/03 06:02:10;;;;;;;84.03;62.03;;;;;;;2.09;100.00;102429.97;5068400;28;20048;-81
2022/12/03 06:04:37;;;;;;;86.70;63.80;;;;;;;2.09;100.00;102427.34;5067064;28;20056;-82
2022/12/03 06:07:08;;;;;;;95.93;68.03;;;;;;;2.12;100.00;102432.38;5063056;28;20045;-81
2022/12/03 06:09:35;;;;;;;85.78;64.43;;;;;;;2.12;100.00;102439.38;5071384;28;20040;-81
2022/12/03 06:12:02;;;;;;;97.40;69.47;;;;;;;2.05;100.00;102416.22;5066636;28;20485;-82
2022/12/03 06:14:29;;;;;;;104.25;70.30;;;;;;;2.02;100.00;102433.94;5069272;28;20101;-82
2022/12/03 06:16:55;;;;;;;87.45;65.20;;;;;;;2.05;100.00;102434.56;5064500;28;20130;-82
2022/12/03 06:19:51;;;;;;;90.03;64.75;;;;;;;2.22;100.00;102438.63;5126817;27;20408;-81
2022/12/03 06:22:18;;;;;;;88.28;62.30;;;;;;;2.21;100.00;102444.84;5068231;28;20049;-82
2022/12/03 06:24:47;;;;;;;83.57;60.53;;;;;;;2.28;100.00;102437.34;5069880;28;20059;-82
2022/12/03 06:27:15;;;;;;;99.80;67.05;;;;;;;2.29;100.00;102439.84;5081570;28;20041;-82
2022/12/03 06:29:42;;;;;;;84.93;59.03;;;;;;;2.35;100.00;102445.63;5069518;28;20059;-85
2022/12/03 06:32:09;;;;;;;86.97;59.35;;;;;;;2.32;100.00;102432.72;5069046;28;20178;-82
2022/12/03 06:34:36;;;;;;;80.30;56.97;;;;;;;2.27;100.00;102460.13;5071373;28;20055;-87
2022/12/03 06:39:57;;;;;;;82.47;59.85;;;;;;;2.18;100.00;102444.19;5125670;27;20423;-82
2022/12/03 06:42:24;;;;;;;78.55;56.85;;;;;;;2.18;100.00;102452.91;5077839;28;20052;-81
2022/12/03 06:44:50;;;;;;;76.28;57.58;;;;;;;2.18;100.00;102452.91;5056981;28;20053;-83
2022/12/03 06:50:13;;;;;;;80.20;57.88;;;;;;;2.24;100.00;102447.22;4610629;27;15053660;-82
2022/12/03 06:52:46;;;;;;;83.95;55.00;;;;;;;2.26;100.00;102460.22;5168518;27;20054;-84
2022/12/03 06:55:18;;;;;;;82.88;58.42;;;;;;;2.22;100.00;102453.53;5169498;27;20055;-84
2022/12/03 06:57:45;;;;;;;83.30;57.88;;;;;;;2.26;100.00;102454.97;5171065;27;20126;-84
2022/12/03 07:00:31;;;;;;;86.05;56.95;;;;;;;2.37;100.00;102448.97;5169314;27;20069;-83
2022/12/03 07:03:08;;;;;;;85.43;57.67;;;;;;;2.30;100.00;102438.09;5144902;27;20487;-84
2022/12/03 07:08:56;;;;;;;80.00;57.75;;;;;;;2.44;100.00;102445.78;5122956;27;20976;-84
2022/12/03 07:11:38;;;;;;;83.38;58.70;;;;;;;2.47;100.00;102452.59;5059593;28;20283;-83
2022/12/03 07:17:17;;;;;;;79.82;59.00;;;;;;;2.67;100.00;102451.16;5157187;27;20761;-84
2022/12/03 07:19:48;;;;;;;80.15;56.10;;;;;;;2.67;100.00;102466.91;5146475;27;20470;-85
2022/12/03 07:22:15;;;;;;;68.93;55.00;;;;;;;3.80;100.00;102454.91;5094331;27;20052;-86
2022/12/03 07:24:42;;;;;;;78.43;61.05;;;;;;;3.16;100.00;102444.91;5088225;28;20048;-84
2022/12/03 07:27:09;;;;;;;74.45;57.08;;;;;;;2.64;100.00;102457.47;5090552;28;20134;-83
2022/12/03 07:29:35;;;;;;;79.13;57.78;;;;;;;2.56;100.00;102451.09;5078392;28;20049;-84
2022/12/03 07:32:08;;;;;;;72.53;57.42;;;;;;;2.49;100.00;102453.34;5086393;28;20113;-84
2022/12/03 07:34:38;;;;;;;76.82;57.58;;;;;;;2.40;100.00;102441.72;5090656;28;20148;-83
2022/12/03 07:39:55;;;;;;;89.60;66.20;;;;;;;2.48;100.00;102446.41;5127571;27;20881;-83
2022/12/03 07:42:22;;;;;;;73.22;56.20;;;;;;;2.45;100.00;102446.63;5070573;28;20037;-84
2022/12/03 07:44:53;;;;;;;91.43;64.13;;;;;;;2.48;100.00;102449.88;5068805;28;20052;-84
2022/12/03 07:47:20;;;;;;;78.90;56.42;;;;;;;2.55;100.00;102468.63;5063993;28;20048;-84
2022/12/03 07:49:53;;;;;;;73.85;57.90;;;;;;;2.58;100.00;102457.91;5069069;28;20523;-84
2022/12/03 07:52:20;;;;;;;83.35;59.97;;;;;;;2.59;100.00;102456.13;5067544;28;20048;-84
2022/12/03 07:54:47;;;;;;;78.13;58.20;;;;;;;2.58;100.00;102457.91;5069191;28;20481;-84
2022/12/03 07:57:21;;;;;;;83.80;62.05;;;;;;;2.57;100.00;102461.47;5068348;28;20051;-83
2022/12/03 07:59:48;;;;;;;73.45;57.78;;;;;;;2.55;100.00;102467.81;5066361;28;20397;-83
2022/12/03 08:02:16;;;;;;;77.60;59.90;;;;;;;2.57;100.00;102465.88;5063786;28;20799;-82
2022/12/03 08:04:43;;;;;;;82.43;61.83;;;;;;;2.52;100.00;102466.22;5062530;28;20060;-82
2022/12/03 08:07:12;;;;;;;72.85;57.38;;;;;;;2.61;100.00;102477.84;5066540;28;20052;-83
2022/12/03 08:09:42;;;;;;;69.65;55.53;;;;;;;2.64;100.00;102475.84;5063205;28;20110;-85
2022/12/03 08:12:16;;;;;;;72.75;58.58;;;;;;;2.60;100.00;102489.28;5070189;28;20386;-83
2022/12/03 08:14:44;;;;;;;78.80;56.13;;;;;;;2.46;100.00;102485.03;5062197;28;20450;-84
2022/12/03 08:17:12;;;;;;;78.13;57.35;;;;;;;2.60;100.00;102492.72;5072534;28;20108;-83
2022/12/03 08:19:39;;;;;;;77.28;56.53;;;;;;;2.66;100.00;102500.19;5071161;28;20044;-83
2022/12/03 08:22:11;;;;;;;109.00;69.68;;;;;;;2.52;100.00;102484.59;5069959;28;20481;-82
2022/12/03 08:27:32;;;;;;;82.90;59.40;;;;;;;2.65;100.00;102480.13;5139527;27;20412;-83
2022/12/03 08:30:04;;;;;;;82.75;58.17;;;;;;;2.82;100.00;102478.91;5100437;28;20058;-84
2022/12/03 08:32:36;;;;;;;81.82;57.92;;;;;;;2.74;100.00;102474.22;5100714;28;20059;-84
2022/12/03 08:35:12;;;;;;;85.68;62.25;;;;;;;2.79;100.00;102473.06;5090947;28;20056;-84
2022/12/03 08:37:39;;;;;;;62.80;54.63;;;;;;;2.78;100.00;102471.38;5093715;28;20069;-82
2022/12/03 08:40:33;;;;;;;64.13;57.15;;;;;;;2.79;100.00;102480.94;5104141;28;20460;-83
2022/12/03 08:43:07;;;;;;;68.75;56.17;;;;;;;2.89;100.00;102476.69;5090034;28;20123;-84
2022/12/03 08:45:40;;;;;;;67.03;57.20;;;;;;;2.75;100.00;102475.03;5102176;28;20075;-84
2022/12/03 08:48:35;;;;;;;69.00;59.95;;;;;;;2.69;100.00;102468.47;5091575;28;20048;-84
2022/12/03 08:51:32;;;;;;;70.82;55.78;;;;;;;2.85;100.00;102486.56;5087233;28;20048;-83
2022/12/03 08:57:26;;;;;;;75.07;61.20;;;;;;;2.84;100.00;102482.25;5110699;27;20781;-83
2022/12/03 09:00:02;;;;;;;64.25;54.55;;;;;;;2.76;100.00;102466.25;5082357;28;20143;-84
2022/12/03 09:02:53;;;;;;;72.53;56.60;;;;;;;2.87;100.00;102462.81;5073066;28;20049;-83
2022/12/03 09:05:32;;;;;;;65.57;55.50;;;;;;;2.74;100.00;102461.09;5077652;28;20045;-82
2022/12/03 09:07:59;;;;;;;65.25;57.08;;;;;;;2.86;100.00;102455.91;5074198;28;20040;-83
2022/12/03 09:23:54;;;;;;;68.90;56.80;;;;;;;3.00;100.00;102454.91;5143778;27;20400;-84
2022/12/03 09:26:21;;;;;;;61.33;54.65;;;;;;;2.93;100.00;102460.56;5116897;28;20100;-82
2022/12/03 09:29:30;;;;;;;67.28;54.67;;;;;;;2.90;100.00;102458.16;5117794;28;20044;-82
2022/12/03 10:03:45;;;;;;;111.70;86.65;;;;;;;3.21;100.00;102448.03;4151483;27;27007056;-84
2022/12/03 10:06:16;;;;;;;68.40;60.67;;;;;;;3.15;100.00;102448.50;5139931;27;20091;-81
2022/12/03 10:08:44;;;;;;;67.00;56.45;;;;;;;3.07;100.00;102442.97;5140293;27;20456;-82
2022/12/03 10:11:14;;;;;;;75.20;60.53;;;;;;;3.06;100.00;102438.69;5147447;27;20115;-85
2022/12/03 10:13:43;;;;;;;79.03;61.25;;;;;;;2.78;100.00;102443.34;5138029;27;20430;-84
2022/12/03 10:16:14;;;;;;;97.05;68.55;;;;;;;2.83;100.00;102427.25;5131380;27;20054;-83
2022/12/03 10:18:47;;;;;;;78.93;61.28;;;;;;;2.88;100.00;102430.38;5135641;27;20040;-82
2022/12/03 10:21:19;;;;;;;74.25;59.17;;;;;;;2.86;100.00;102432.28;5148457;27;20130;-81
2022/12/03 10:23:49;;;;;;;;;;;;;;;2.90;100.00;102441.59;5142651;27;20055;-81
2022/12/03 10:26:17;;;;;;;70.40;62.70;;;;;;;2.83;100.00;102435.97;5148681;27;20022;-81
2022/12/03 10:28:50;;;;;;;68.90;58.35;;;;;;;3.08;100.00;102434.97;5148414;27;20043;-82
2022/12/03 10:31:17;;;;;;;64.82;57.97;;;;;;;3.04;100.00;102441.41;5143420;27;20075;-81
2022/12/03 10:36:27;;;;;;;66.95;57.38;;;;;;;3.43;100.00;102431.47;4573849;27;15058983;-81
2022/12/03 10:39:08;;;;;;;70.72;58.83;;;;;;;3.16;100.00;102429.16;5129166;28;20040;-82
2022/12/03 10:41:37;;;;;;;116.82;78.97;;;;;;;3.14;100.00;102428.44;5126694;28;20043;-83
2022/12/03 10:44:24;;;;;;;92.85;66.50;;;;;;;3.16;100.00;102422.13;5123470;28;20400;-81
2022/12/03 10:47:06;;;;;;;66.38;57.97;;;;;;;3.18;100.00;102417.59;5121170;28;20047;-84
2022/12/03 10:49:33;;;;;;;64.35;56.75;;;;;;;2.92;100.00;102423.94;5125260;28;20048;-84
2022/12/03 13:08:12;;;;;;;95.85;86.00;;;;;;;3.43;100.00;102418.34;5118595;27;20420;-86
2022/12/03 14:02:12;;;;;;;73.60;62.03;;;;;;;3.26;100.00;102451.13;5045923;27;20457;-89
2022/12/03 14:04:40;;;;;;;92.45;73.38;;;;;;;3.11;100.00;102442.63;5004824;28;20633;-90
2022/12/03 14:07:08;;;;;;;78.93;64.88;;;;;;;3.15;100.00;102446.72;5003241;28;20050;-90
2022/12/03 14:12:43;;;;;;;63.22;56.15;;;;;;;3.05;100.00;102429.13;5000878;28;20066;-90
2022/12/03 14:18:15;;;;;;;58.30;52.33;;;;;;;3.21;100.00;102433.13;4998185;28;20050;-90
2022/12/03 14:20:43;;;;;;;61.75;55.38;;;;;;;3.24;100.00;102439.06;4995900;28;20098;-90
2022/12/03 14:23:11;;;;;;;61.40;54.70;;;;;;;3.09;100.00;102441.91;4998681;28;20045;-90
2022/12/03 14:25:39;;;;;;;61.25;54.90;;;;;;;3.14;100.00;102438.94;5003565;28;20046;-90
2022/12/03 14:28:07;;;;;;;62.92;53.55;;;;;;;3.31;100.00;102438.50;5000171;28;20054;-90
2022/12/03 14:30:35;;;;;;;61.95;55.17;;;;;;;3.27;100.00;102439.69;4995523;28;20125;-91
2022/12/03 14:33:04;;;;;;;59.97;53.47;;;;;;;3.31;100.00;102441.13;5006622;28;20050;-90
2022/12/03 14:35:35;;;;;;;58.30;52.25;;;;;;;3.30;100.00;102422.84;4998157;28;20043;-90
2022/12/03 14:38:02;;;;;;;58.63;52.72;;;;;;;3.45;100.00;102434.84;4999099;28;20038;-90
2022/12/03 14:40:31;;;;;;;71.03;63.75;;;;;;;3.60;100.00;102433.66;4996429;28;20129;-90
2022/12/03 14:57:06;;;;;;;63.28;55.85;;;;;;;2.95;100.00;102453.44;5123853;27;20202;-87
2022/12/03 15:07:58;;;;;;;67.65;60.28;;;;;;;2.85;100.00;102477.84;5077232;28;20451;-87
2022/12/03 15:11:18;;;;;;;69.68;62.05;;;;;;;2.82;100.00;102473.66;5074327;28;20040;-87
2022/12/03 15:14:11;;;;;;;69.03;61.50;;;;;;;2.98;100.00;102478.63;5059094;28;20040;-87
2022/12/03 15:24:02;;;;;;;91.55;74.35;;;;;;;2.86;100.00;102476.91;5020241;28;20073;-86
2022/12/03 15:29:52;;;;;;;73.95;65.00;;;;;;;2.87;100.00;102468.06;5040506;28;20047;-87
2022/12/03 15:32:19;;;;;;;79.88;66.63;;;;;;;2.95;100.00;102463.94;5082468;28;20063;-86
2022/12/03 15:38:56;;;;;;;;;;;;;;;;;;;;;
2022/12/03 16:05:37;;;;;;;;;;;;;;;;;;;;;
2022/12/03 16:29:54;;;;;;;;;;;;;;;;;;;;;
2022/12/03 16:39:49;;;;;;;60.10;53.75;;;;;;;3.06;100.00;102496.44;5027529;28;20391;-86
2022/12/03 16:47:07;;;;;;;68.43;55.50;;;;;;;3.05;100.00;102500.00;4136735;27;27043101;-86
2022/12/03 17:06:35;;;;;;;78.57;64.82;;;;;;;2.86;100.00;102511.03;5527240;22;16968713;-86
2022/12/03 20:35:57;;;;;;;63.92;52.63;;;;;;;1.76;100.00;102624.44;5624287;21;15082102;-90
2022/12/03 21:49:56;;;;;;;57.88;51.67;;;;;;;1.42;100.00;102644.13;6285612;22;20045;-87
2022/12/03 22:43:56;;;;;;;66.45;56.10;;;;;;;0.91;100.00;102631.66;5080283;27;20485;-87
2022/12/03 22:46:40;;;;;;;64.05;53.85;;;;;;;1.06;100.00;102627.19;5100154;28;20047;-87
2022/12/03 22:49:19;;;;;;;64.53;51.47;;;;;;;1.20;100.00;102636.81;5108002;27;20044;-86
2022/12/03 22:51:51;;;;;;;61.25;52.88;;;;;;;1.01;100.00;102622.28;5104498;28;20136;-86
2022/12/03 22:54:21;;;;;;;75.50;57.08;;;;;;;0.90;100.00;102635.19;5108874;28;20105;-87
2022/12/03 22:56:48;;;;;;;76.00;57.20;;;;;;;0.86;100.00;102625.84;5110829;28;20433;-87
2022/12/03 22:59:16;;;;;;;66.00;52.60;;;;;;;0.86;100.00;102629.31;5098050;28;20114;-87
2022/12/03 23:02:10;;;;;;;70.95;53.75;;;;;;;0.98;100.00;102624.25;5098488;28;20043;-86
2022/12/03 23:04:37;;;;;;;72.47;57.58;;;;;;;0.78;100.00;102609.78;5112019;28;20060;-86
2022/12/03 23:07:30;;;;;;;69.95;53.47;;;;;;;0.95;100.00;102613.97;5112091;28;20117;-87
2022/12/03 23:10:04;;;;;;;76.15;52.83;;;;;;;0.94;100.00;102615.75;5111547;28;20051;-86
2022/12/03 23:12:38;;;;;;;72.68;54.13;;;;;;;1.25;100.00;102624.28;5111817;28;20051;-87
2022/12/03 23:15:18;;;;;;;67.35;51.92;;;;;;;1.00;100.00;102625.84;5111736;28;20113;-86
2022/12/03 23:17:48;;;;;;;62.42;53.60;;;;;;;0.89;100.00;102621.25;5091334;28;20056;-86
2022/12/03 23:20:35;;;;;;;69.22;54.83;;;;;;;1.10;100.00;102610.38;5110543;28;20499;-86
2022/12/03 23:23:08;;;;;;;65.32;52.67;;;;;;;0.90;100.00;102611.63;5093663;28;20048;-86
2022/12/03 23:25:37;;;;;;;65.30;53.00;;;;;;;0.89;100.00;102599.50;5111021;28;20051;-86
2022/12/03 23:28:04;;;;;;;73.60;54.70;;;;;;;0.96;100.00;102613.03;5111286;28;20117;-88
2022/12/03 23:30:47;;;;;;;66.97;54.30;;;;;;;0.84;100.00;102604.16;5108701;28;20044;-86
2022/12/03 23:33:22;;;;;;;72.30;52.83;;;;;;;0.83;100.00;102603.34;5090755;28;20056;-86
2022/12/03 23:35:50;;;;;;;71.10;53.88;;;;;;;0.76;100.00;102615.13;5107461;28;20085;-85
2022/12/03 23:38:28;;;;;;;73.55;55.40;;;;;;;0.85;100.00;102611.94;5110960;28;20108;-86
2022/12/03 23:41:06;;;;;;;67.68;53.13;;;;;;;0.98;100.00;102621.63;5092431;28;20052;-86